sensor_id;sensor_type;location;lat;lon;timestamp;pressure;altitude;pressure_sealevel;temperature;humidity
59859;BME280;45734;53.648;9.566;2023-05-16T00:03:12;92726.97;;;-145.06;100.00
59859;BME280;45734;53.648;9.566;2023-05-16T00:08:12;92733.13;;;-145.06;100.00
59859;BME280;45734;53.648;9.566;2023-05-16T00:13:12;92778.09;;;-145.06;100.00
59859;BME280;45734;53.648;9.566;2023-05-16T00:18:13;92696.31;;;-145.06;100.00
59859;BME280;45734;53.648;9.566;2023-05-16T00:23:15;92682.00;;;-145.06;100.00
59859;BME280;45734;53.648;9.566;2023-05-16T00:28:16;92757.66;;;-145.06;100.00
59859;BME280;45734;53.648;9.566;2023-05-16T00:33:16;92722.88;;;-145.06;100.00
59859;BME280;45734;53.648;9.566;2023-05-16T00:38:16;92718.81;;;-145.06;100.00
59859;BME280;45734;53.648;9.566;2023-05-16T00:43:16;92761.75;;;-145.06;100.00
59859;BME280;45734;53.648;9.566;2023-05-16T00:48:17;92757.66;;;-145.06;100.00
59859;BME280;45734;53.648;9.566;2023-05-16T00:53:18;92800.59;;;-145.06;100.00
59859;BME280;45734;53.648;9.566;2023-05-16T00:58:19;92821.03;;;-145.06;100.00
59859;BME280;45734;53.648;9.566;2023-05-16T01:03:21;92864.00;;;-145.06;100.00
59859;BME280;45734;53.648;9.566;2023-05-16T01:08:21;92853.78;;;-145.06;100.00
59859;BME280;45734;53.648;9.566;2023-05-16T01:13:30;92853.78;;;-145.06;100.00
59859;BME280;45734;53.648;9.566;2023-05-16T01:24:01;92849.69;;;-145.06;100.00
59859;BME280;45734;53.648;9.566;2023-05-16T01:29:03;92794.47;;;-145.06;100.00
59859;BME280;45734;53.648;9.566;2023-05-16T01:34:04;92816.97;;;-145.06;100.00
59859;BME280;45734;53.648;9.566;2023-05-16T01:39:10;92771.97;;;-145.06;100.00
59859;BME280;45734;53.648;9.566;2023-05-16T01:49:26;92753.56;;;-145.06;100.00
59859;BME280;45734;53.648;9.566;2023-05-16T01:54:31;92749.47;;;-145.06;100.00
59859;BME280;45734;53.648;9.566;2023-05-16T01:59:32;92802.63;;;-145.06;100.00
59859;BME280;45734;53.648;9.566;2023-05-16T02:04:33;92778.09;;;-145.06;100.00
59859;BME280;45734;53.648;9.566;2023-05-16T02:09:34;92771.97;;;-145.06;100.00
59859;BME280;45734;53.648;9.566;2023-05-16T02:14:34;92776.06;;;-145.06;100.00
59859;BME280;45734;53.648;9.566;2023-05-16T02:19:36;92771.97;;;-145.06;100.00
59859;BME280;45734;53.648;9.566;2023-05-16T02:24:36;92718.81;;;-145.06;100.00
59859;BME280;45734;53.648;9.566;2023-05-16T02:29:36;92769.91;;;-145.06;100.00
59859;BME280;45734;53.648;9.566;2023-05-16T02:34:36;92778.09;;;-145.06;100.00
59859;BME280;45734;53.648;9.566;2023-05-16T02:39:37;92702.44;;;-145.06;100.00
59859;BME280;45734;53.648;9.566;2023-05-16T02:44:37;92720.84;;;-145.06;100.00
59859;BME280;45734;53.648;9.566;2023-05-16T02:49:38;92698.34;;;-145.06;100.00
59859;BME280;45734;53.648;9.566;2023-05-16T02:54:38;92769.91;;;-145.06;100.00
59859;BME280;45734;53.648;9.566;2023-05-16T02:59:38;92774.00;;;-145.06;100.00
59859;BME280;45734;53.648;9.566;2023-05-16T03:04:38;92757.66;;;-145.06;100.00
59859;BME280;45734;53.648;9.566;2023-05-16T03:09:39;92774.00;;;-145.06;100.00
59859;BME280;45734;53.648;9.566;2023-05-16T03:14:39;92757.66;;;-145.06;100.00
59859;BME280;45734;53.648;9.566;2023-05-16T03:19:39;92729.03;;;-145.06;100.00
59859;BME280;45734;53.648;9.566;2023-05-16T03:24:40;92731.06;;;-145.06;100.00
59859;BME280;45734;53.648;9.566;2023-05-16T03:29:40;92755.59;;;-145.06;100.00
59859;BME280;45734;53.648;9.566;2023-05-16T03:34:40;92712.66;;;-145.06;100.00
59859;BME280;45734;53.648;9.566;2023-05-16T03:39:41;92753.56;;;-145.06;100.00
59859;BME280;45734;53.648;9.566;2023-05-16T03:44:41;92763.78;;;-145.06;100.00
59859;BME280;45734;53.648;9.566;2023-05-16T03:49:41;92790.38;;;-145.06;100.00
59859;BME280;45734;53.648;9.566;2023-05-16T03:54:41;92735.16;;;-145.06;100.00
59859;BME280;45734;53.648;9.566;2023-05-16T03:59:42;92755.59;;;-145.06;100.00
59859;BME280;45734;53.648;9.566;2023-05-16T04:04:42;92747.44;;;-145.06;100.00
59859;BME280;45734;53.648;9.566;2023-05-16T04:09:42;92624.72;;;-145.06;100.00
59859;BME280;45734;53.648;9.566;2023-05-16T04:14:42;92234.19;;;-145.06;100.00
59859;BME280;45734;53.648;9.566;2023-05-16T04:19:43;92164.66;;;-145.06;100.00
59859;BME280;45734;53.648;9.566;2023-05-16T04:24:43;92594.06;;;-145.06;99.93
59859;BME280;45734;53.648;9.566;2023-05-16T04:29:44;92669.72;;;-145.06;99.83
59859;BME280;45734;53.648;9.566;2023-05-16T04:34:44;92598.16;;;-145.06;97.76
59859;BME280;45734;53.648;9.566;2023-05-16T04:39:46;92148.31;;;-145.06;94.25
59859;BME280;45734;53.648;9.566;2023-05-16T04:44:47;92025.63;;;-145.06;92.67
59859;BME280;45734;53.648;9.566;2023-05-16T04:49:47;91980.66;;;-145.06;91.75
59859;BME280;45734;53.648;9.566;2023-05-16T04:54:49;92025.63;;;-145.06;89.81
59859;BME280;45734;53.648;9.566;2023-05-16T04:59:51;91931.59;;;-145.06;90.68
59859;BME280;45734;53.648;9.566;2023-05-16T05:04:51;91400.06;;;-145.06;88.36
59859;BME280;45734;53.648;9.566;2023-05-16T05:09:52;91005.53;;;-145.06;72.99
59859;BME280;45734;53.648;9.566;2023-05-16T05:14:54;90698.94;;;-145.06;62.58
59859;BME280;45734;53.648;9.566;2023-05-16T05:19:55;90698.94;;;-145.06;53.19
59859;BME280;45734;53.648;9.566;2023-05-16T05:24:55;90733.69;;;-145.06;48.48
59859;BME280;45734;53.648;9.566;2023-05-16T05:29:56;90570.16;;;-145.06;48.91
59859;BME280;45734;53.648;9.566;2023-05-16T05:34:56;90529.28;;;-145.06;47.44
59859;BME280;45734;53.648;9.566;2023-05-16T05:39:56;90897.19;;;-145.06;48.46
59859;BME280;45734;53.648;9.566;2023-05-16T05:44:57;91179.28;;;-145.06;49.55
59859;BME280;45734;53.648;9.566;2023-05-16T05:49:57;91322.38;;;-145.06;51.88
59859;BME280;45734;53.648;9.566;2023-05-16T05:54:58;91109.78;;;-145.06;52.29
59859;BME280;45734;53.648;9.566;2023-05-16T05:59:59;90445.50;;;-145.06;49.17
59859;BME280;45734;53.648;9.566;2023-05-16T06:04:59;90247.25;;;-145.06;42.67
59859;BME280;45734;53.648;9.566;2023-05-16T06:09:59;90138.94;;;-145.06;42.02
59859;BME280;45734;53.648;9.566;2023-05-16T06:15:03;89944.81;;;-145.06;40.11
59859;BME280;45734;53.648;9.566;2023-05-16T06:20:04;89901.91;;;-145.06;38.63
59859;BME280;45734;53.648;9.566;2023-05-16T06:25:05;89793.59;;;-145.06;37.93
59859;BME280;45734;53.648;9.566;2023-05-16T06:30:06;89942.75;;;-145.06;37.05
59859;BME280;45734;53.648;9.566;2023-05-16T06:35:07;89973.41;;;-145.06;36.06
59859;BME280;45734;53.648;9.566;2023-05-16T06:40:08;90341.28;;;-145.06;38.00
59859;BME280;45734;53.648;9.566;2023-05-16T06:45:09;90077.63;;;-145.06;39.33
59859;BME280;45734;53.648;9.566;2023-05-16T06:50:10;89934.59;;;-145.06;37.16
59859;BME280;45734;53.648;9.566;2023-05-16T06:55:10;89993.84;;;-145.06;35.95
59859;BME280;45734;53.648;9.566;2023-05-16T07:00:12;89836.50;;;-145.06;37.03
59859;BME280;45734;53.648;9.566;2023-05-16T07:05:12;89924.38;;;-145.06;37.05
59859;BME280;45734;53.648;9.566;2023-05-16T07:10:13;89989.75;;;-145.06;36.10
59859;BME280;45734;53.648;9.566;2023-05-16T07:15:13;89805.84;;;-145.06;36.85
59859;BME280;45734;53.648;9.566;2023-05-16T07:20:13;89822.19;;;-145.06;35.68
59859;BME280;45734;53.648;9.566;2023-05-16T07:25:14;89830.38;;;-145.06;36.49
59859;BME280;45734;53.648;9.566;2023-05-16T07:30:15;89734.34;;;-145.06;36.18
59859;BME280;45734;53.648;9.566;2023-05-16T07:35:15;89932.53;;;-145.06;37.34
59859;BME280;45734;53.648;9.566;2023-05-16T07:40:16;89920.28;;;-145.06;37.98
59859;BME280;45734;53.648;9.566;2023-05-16T07:45:17;90952.38;;;-145.06;42.55
59859;BME280;45734;53.648;9.566;2023-05-16T07:50:18;91138.41;;;-145.06;45.01
59859;BME280;45734;53.648;9.566;2023-05-16T07:55:18;91191.53;;;-145.06;47.42
59859;BME280;45734;53.648;9.566;2023-05-16T08:00:19;91032.09;;;-145.06;48.13
59859;BME280;45734;53.648;9.566;2023-05-16T08:05:19;91144.53;;;-145.06;44.65
59859;BME280;45734;53.648;9.566;2023-05-16T08:10:21;90713.25;;;-145.06;43.24
59859;BME280;45734;53.648;9.566;2023-05-16T08:15:22;90956.47;;;-145.06;42.80
59859;BME280;45734;53.648;9.566;2023-05-16T08:20:23;90149.16;;;-145.06;39.45
59859;BME280;45734;53.648;9.566;2023-05-16T08:25:23;90151.22;;;-145.06;39.94
59859;BME280;45734;53.648;9.566;2023-05-16T08:30:24;89944.81;;;-145.06;37.26
59859;BME280;45734;53.648;9.566;2023-05-16T08:35:25;89977.50;;;-145.06;37.95
59859;BME280;45734;53.648;9.566;2023-05-16T08:40:25;90065.38;;;-145.06;37.42
59859;BME280;45734;53.648;9.566;2023-05-16T08:45:27;90010.19;;;-145.06;37.89
59859;BME280;45734;53.648;9.566;2023-05-16T08:50:30;90625.34;;;-145.06;38.54
59859;BME280;45734;53.648;9.566;2023-05-16T08:55:30;90324.91;;;-145.06;40.18
59859;BME280;45734;53.648;9.566;2023-05-16T09:00:31;90251.34;;;-145.06;40.55
59859;BME280;45734;53.648;9.566;2023-05-16T09:05:31;90282.00;;;-145.06;37.21
59859;BME280;45734;53.648;9.566;2023-05-16T09:10:32;90173.69;;;-145.06;38.34
59859;BME280;45734;53.648;9.566;2023-05-16T09:15:33;90825.66;;;-145.06;38.86
59859;BME280;45734;53.648;9.566;2023-05-16T09:20:33;90721.41;;;-145.06;39.52
59859;BME280;45734;53.648;9.566;2023-05-16T09:25:34;90999.41;;;-145.06;42.15
59859;BME280;45734;53.648;9.566;2023-05-16T09:30:34;91064.81;;;-145.06;43.30
59859;BME280;45734;53.648;9.566;2023-05-16T09:35:36;91232.41;;;-145.06;45.48
59859;BME280;45734;53.648;9.566;2023-05-16T09:40:39;91283.53;;;-145.06;47.38
59859;BME280;45734;53.648;9.566;2023-05-16T09:45:45;91034.16;;;-145.06;47.82
59859;BME280;45734;53.648;9.566;2023-05-16T09:50:47;91046.41;;;-145.06;47.82
59859;BME280;45734;53.648;9.566;2023-05-16T09:56:02;91091.38;;;-145.06;47.50
59859;BME280;45734;53.648;9.566;2023-05-16T10:01:04;91224.25;;;-145.06;44.84
59859;BME280;45734;53.648;9.566;2023-05-16T10:06:05;90666.22;;;-145.06;48.16
59859;BME280;45734;53.648;9.566;2023-05-16T10:11:06;91089.34;;;-145.06;45.19
59859;BME280;45734;53.648;9.566;2023-05-16T10:16:09;91122.03;;;-145.06;43.82
59859;BME280;45734;53.648;9.566;2023-05-16T10:21:13;91279.44;;;-145.06;47.25
59859;BME280;45734;53.648;9.566;2023-05-16T10:26:15;91167.00;;;-145.06;51.37
59859;BME280;45734;53.648;9.566;2023-05-16T10:31:17;91348.94;;;-145.06;54.15
59859;BME280;45734;53.648;9.566;2023-05-16T10:36:18;91381.66;;;-145.06;54.68
59859;BME280;45734;53.648;9.566;2023-05-16T10:41:19;91383.69;;;-145.06;53.37
59859;BME280;45734;53.648;9.566;2023-05-16T10:46:22;91150.66;;;-145.06;48.85
59859;BME280;45734;53.648;9.566;2023-05-16T10:56:24;91097.50;;;-145.06;46.86
59859;BME280;45734;53.648;9.566;2023-05-16T11:01:32;90909.47;;;-145.06;46.87
59859;BME280;45734;53.648;9.566;2023-05-16T11:12:02;90923.78;;;-145.06;46.02
59859;BME280;45734;53.648;9.566;2023-05-16T11:17:07;90960.56;;;-145.06;45.61
59859;BME280;45734;53.648;9.566;2023-05-16T11:22:29;90929.91;;;-145.06;42.97
59859;BME280;45734;53.648;9.566;2023-05-16T11:27:41;90915.59;;;-145.06;43.61
59859;BME280;45734;53.648;9.566;2023-05-16T11:32:43;91079.13;;;-145.06;43.79
59859;BME280;45734;53.648;9.566;2023-05-16T11:37:44;91132.25;;;-145.06;46.76
59859;BME280;45734;53.648;9.566;2023-05-16T11:42:46;91232.41;;;-145.06;47.05
59859;BME280;45734;53.648;9.566;2023-05-16T11:47:47;91273.31;;;-145.06;49.71
59859;BME280;45734;53.648;9.566;2023-05-16T11:52:50;91465.47;;;-145.06;59.16
59859;BME280;45734;53.648;9.566;2023-05-16T11:57:53;91404.13;;;-145.06;68.35
59859;BME280;45734;53.648;9.566;2023-05-16T12:02:59;91559.50;;;-145.06;76.43
59859;BME280;45734;53.648;9.566;2023-05-16T12:08:00;91532.94;;;-145.06;81.01
59859;BME280;45734;53.648;9.566;2023-05-16T12:13:01;91395.97;;;-145.06;71.22
59859;BME280;45734;53.648;9.566;2023-05-16T12:18:02;91586.06;;;-145.06;67.29
59859;BME280;45734;53.648;9.566;2023-05-16T12:23:03;91776.22;;;-145.06;71.48
59859;BME280;45734;53.648;9.566;2023-05-16T12:28:06;91706.69;;;-145.06;69.00
59859;BME280;45734;53.648;9.566;2023-05-16T12:33:08;91676.03;;;-145.06;73.86
59859;BME280;45734;53.648;9.566;2023-05-16T12:38:11;91504.31;;;-145.06;80.61
59859;BME280;45734;53.648;9.566;2023-05-16T12:43:21;91490.00;;;-145.06;71.37
59859;BME280;45734;53.648;9.566;2023-05-16T12:48:23;91528.84;;;-145.06;61.50
59859;BME280;45734;53.648;9.566;2023-05-16T12:53:28;91447.06;;;-145.06;62.14
59859;BME280;45734;53.648;9.566;2023-05-16T12:58:29;91616.75;;;-145.06;63.44
59859;BME280;45734;53.648;9.566;2023-05-16T13:03:29;91678.06;;;-145.06;70.15
59859;BME280;45734;53.648;9.566;2023-05-16T13:08:30;91743.50;;;-145.06;71.98
59859;BME280;45734;53.648;9.566;2023-05-16T13:13:30;91637.19;;;-145.06;72.33
59859;BME280;45734;53.648;9.566;2023-05-16T13:18:31;91692.38;;;-145.06;69.94
59859;BME280;45734;53.648;9.566;2023-05-16T13:23:31;91702.59;;;-145.06;62.66
59859;BME280;45734;53.648;9.566;2023-05-16T13:28:32;91735.31;;;-145.06;68.66
59859;BME280;45734;53.648;9.566;2023-05-16T13:33:32;91690.34;;;-145.06;74.42
59859;BME280;45734;53.648;9.566;2023-05-16T13:38:32;91676.03;;;-145.06;80.93
59859;BME280;45734;53.648;9.566;2023-05-16T13:43:33;91635.16;;;-145.06;76.72
59859;BME280;45734;53.648;9.566;2023-05-16T13:48:33;91626.97;;;-145.06;72.80
59859;BME280;45734;53.648;9.566;2023-05-16T13:53:33;91541.09;;;-145.06;71.33
59859;BME280;45734;53.648;9.566;2023-05-16T13:58:33;91563.59;;;-145.06;72.23
59859;BME280;45734;53.648;9.566;2023-05-16T14:03:34;91404.13;;;-145.06;64.45
59859;BME280;45734;53.648;9.566;2023-05-16T14:08:37;91530.88;;;-145.06;57.04
59859;BME280;45734;53.648;9.566;2023-05-16T14:13:37;91530.88;;;-145.06;55.50
59859;BME280;45734;53.648;9.566;2023-05-16T14:18:39;91600.38;;;-145.06;59.12
59859;BME280;45734;53.648;9.566;2023-05-16T14:23:39;91659.69;;;-145.06;69.16
59859;BME280;45734;53.648;9.566;2023-05-16T14:28:40;91534.97;;;-145.06;66.55
59859;BME280;45734;53.648;9.566;2023-05-16T14:33:40;91539.06;;;-145.06;67.28
59859;BME280;45734;53.648;9.566;2023-05-16T14:38:42;91553.38;;;-145.06;64.22
59859;BME280;45734;53.648;9.566;2023-05-16T14:43:43;91496.13;;;-145.06;65.81
59859;BME280;45734;53.648;9.566;2023-05-16T14:48:44;91537.00;;;-145.06;64.33
59859;BME280;45734;53.648;9.566;2023-05-16T14:53:44;91610.59;;;-145.06;65.75
59859;BME280;45734;53.648;9.566;2023-05-16T14:58:45;91530.88;;;-145.06;66.26
59859;BME280;45734;53.648;9.566;2023-05-16T15:03:45;91604.47;;;-145.06;65.01
59859;BME280;45734;53.648;9.566;2023-05-16T15:08:46;91698.53;;;-145.06;67.17
59859;BME280;45734;53.648;9.566;2023-05-16T15:13:46;91616.75;;;-145.06;67.40
59859;BME280;45734;53.648;9.566;2023-05-16T15:18:47;91563.59;;;-145.06;62.55
59859;BME280;45734;53.648;9.566;2023-05-16T15:23:47;91475.69;;;-145.06;59.36
59859;BME280;45734;53.648;9.566;2023-05-16T15:28:49;91496.13;;;-145.06;58.53
59859;BME280;45734;53.648;9.566;2023-05-16T15:33:49;91467.50;;;-145.06;57.35
59859;BME280;45734;53.648;9.566;2023-05-16T15:38:50;91524.75;;;-145.06;59.84
59859;BME280;45734;53.648;9.566;2023-05-16T15:43:50;91557.47;;;-145.06;59.92
59859;BME280;45734;53.648;9.566;2023-05-16T15:48:50;91626.97;;;-145.06;61.89
59859;BME280;45734;53.648;9.566;2023-05-16T15:53:51;91598.34;;;-145.06;63.33
59859;BME280;45734;53.648;9.566;2023-05-16T15:58:54;91481.81;;;-145.06;64.97
59859;BME280;45734;53.648;9.566;2023-05-16T16:03:54;91555.41;;;-145.06;62.67
59859;BME280;45734;53.648;9.566;2023-05-16T16:08:55;91772.13;;;-145.06;61.96
59859;BME280;45734;53.648;9.566;2023-05-16T16:13:55;91686.25;;;-145.06;63.31
59859;BME280;45734;53.648;9.566;2023-05-16T16:18:55;91788.47;;;-145.06;66.06
59859;BME280;45734;53.648;9.566;2023-05-16T16:23:56;91714.88;;;-145.06;69.38
59859;BME280;45734;53.648;9.566;2023-05-16T16:28:56;91874.34;;;-145.06;70.70
59859;BME280;45734;53.648;9.566;2023-05-16T16:33:56;91911.13;;;-145.06;72.64
59859;BME280;45734;53.648;9.566;2023-05-16T16:38:58;92326.19;;;-145.06;81.34
59859;BME280;45734;53.648;9.566;2023-05-16T16:43:58;91872.28;;;-145.06;93.17
59859;BME280;45734;53.648;9.566;2023-05-16T16:48:58;92023.59;;;-145.06;96.97
59859;BME280;45734;53.648;9.566;2023-05-16T16:53:59;92107.41;;;-145.06;98.34
59859;BME280;45734;53.648;9.566;2023-05-16T16:58:59;92606.34;;;-145.06;100.00
59859;BME280;45734;53.648;9.566;2023-05-16T17:03:59;92520.44;;;-145.06;100.00
59859;BME280;45734;53.648;9.566;2023-05-16T17:09:01;92387.53;;;-145.06;100.00
59859;BME280;45734;53.648;9.566;2023-05-16T17:14:02;92191.25;;;-145.06;100.00
59859;BME280;45734;53.648;9.566;2023-05-16T17:19:08;92119.69;;;-145.06;100.00
59859;BME280;45734;53.648;9.566;2023-05-16T17:24:08;92168.75;;;-145.06;100.00
59859;BME280;45734;53.648;9.566;2023-05-16T17:29:09;92297.56;;;-145.06;100.00
59859;BME280;45734;53.648;9.566;2023-05-16T17:34:10;92450.94;;;-145.06;100.00
59859;BME280;45734;53.648;9.566;2023-05-16T17:39:11;92469.31;;;-145.06;100.00
59859;BME280;45734;53.648;9.566;2023-05-16T17:44:11;92651.31;;;-145.06;100.00
59859;BME280;45734;53.648;9.566;2023-05-16T17:49:11;92622.69;;;-145.06;100.00
59859;BME280;45734;53.648;9.566;2023-05-16T17:54:12;92651.31;;;-145.06;100.00
59859;BME280;45734;53.648;9.566;2023-05-16T17:59:13;92610.41;;;-145.06;100.00
59859;BME280;45734;53.648;9.566;2023-05-16T18:04:14;92663.59;;;-145.06;100.00
59859;BME280;45734;53.648;9.566;2023-05-16T18:09:14;92690.16;;;-145.06;100.00
59859;BME280;45734;53.648;9.566;2023-05-16T18:14:14;92690.16;;;-145.06;100.00
59859;BME280;45734;53.648;9.566;2023-05-16T18:19:16;92726.97;;;-145.06;100.00
59859;BME280;45734;53.648;9.566;2023-05-16T18:24:16;92749.47;;;-145.06;100.00
59859;BME280;45734;53.648;9.566;2023-05-16T18:29:16;92745.38;;;-145.06;100.00
59859;BME280;45734;53.648;9.566;2023-05-16T18:34:17;92774.00;;;-145.06;100.00
59859;BME280;45734;53.648;9.566;2023-05-16T18:39:17;92778.09;;;-145.06;100.00
59859;BME280;45734;53.648;9.566;2023-05-16T18:44:19;92845.59;;;-145.06;100.00
59859;BME280;45734;53.648;9.566;2023-05-16T18:49:19;92917.16;;;-145.06;100.00
59859;BME280;45734;53.648;9.566;2023-05-16T18:54:20;92911.03;;;-145.06;100.00
59859;BME280;45734;53.648;9.566;2023-05-16T18:59:20;92825.13;;;-145.06;100.00
59859;BME280;45734;53.648;9.566;2023-05-16T19:04:20;92868.09;;;-145.06;100.00
59859;BME280;45734;53.648;9.566;2023-05-16T19:09:21;92886.50;;;-145.06;100.00
59859;BME280;45734;53.648;9.566;2023-05-16T19:14:22;92878.31;;;-145.06;100.00
59859;BME280;45734;53.648;9.566;2023-05-16T19:19:22;92868.09;;;-145.06;100.00
59859;BME280;45734;53.648;9.566;2023-05-16T19:24:23;92835.38;;;-145.06;100.00
59859;BME280;45734;53.648;9.566;2023-05-16T19:29:23;92861.94;;;-145.06;100.00
59859;BME280;45734;53.648;9.566;2023-05-16T19:34:24;92866.03;;;-145.06;100.00
59859;BME280;45734;53.648;9.566;2023-05-16T19:39:25;92853.78;;;-145.06;100.00
59859;BME280;45734;53.648;9.566;2023-05-16T19:44:25;92864.00;;;-145.06;100.00
59859;BME280;45734;53.648;9.566;2023-05-16T19:49:26;92898.75;;;-145.06;100.00
59859;BME280;45734;53.648;9.566;2023-05-16T19:54:26;92911.03;;;-145.06;100.00
59859;BME280;45734;53.648;9.566;2023-05-16T19:59:26;92900.81;;;-145.06;100.00
59859;BME280;45734;53.648;9.566;2023-05-16T20:04:27;92913.06;;;-145.06;100.00
59859;BME280;45734;53.648;9.566;2023-05-16T20:09:27;92882.41;;;-145.06;100.00
59859;BME280;45734;53.648;9.566;2023-05-16T20:14:27;92982.59;;;-145.06;100.00
59859;BME280;45734;53.648;9.566;2023-05-16T20:19:28;93021.47;;;-145.06;100.00
59859;BME280;45734;53.648;9.566;2023-05-16T20:24:28;93031.69;;;-145.06;100.00
59859;BME280;45734;53.648;9.566;2023-05-16T20:29:29;93013.28;;;-145.06;100.00
59859;BME280;45734;53.648;9.566;2023-05-16T20:34:31;93037.81;;;-145.06;100.00
59859;BME280;45734;53.648;9.566;2023-05-16T20:39:31;93027.59;;;-145.06;100.00
59859;BME280;45734;53.648;9.566;2023-05-16T20:44:32;93019.41;;;-145.06;100.00
59859;BME280;45734;53.648;9.566;2023-05-16T20:49:33;93056.22;;;-145.06;100.00
59859;BME280;45734;53.648;9.566;2023-05-16T20:54:38;93048.03;;;-145.06;100.00
59859;BME280;45734;53.648;9.566;2023-05-16T20:59:40;93043.97;;;-145.06;100.00
59859;BME280;45734;53.648;9.566;2023-05-16T21:04:40;93046.00;;;-145.06;100.00
59859;BME280;45734;53.648;9.566;2023-05-16T21:09:40;93074.63;;;-145.06;100.00
59859;BME280;45734;53.648;9.566;2023-05-16T21:14:41;93054.19;;;-145.06;100.00
59859;BME280;45734;53.648;9.566;2023-05-16T21:19:43;93048.03;;;-145.06;100.00
59859;BME280;45734;53.648;9.566;2023-05-16T21:24:43;93066.44;;;-145.06;100.00
59859;BME280;45734;53.648;9.566;2023-05-16T21:29:43;93058.28;;;-145.06;100.00
59859;BME280;45734;53.648;9.566;2023-05-16T21:34:43;93060.31;;;-145.06;100.00
59859;BME280;45734;53.648;9.566;2023-05-16T21:39:44;93097.13;;;-145.06;100.00
59859;BME280;45734;53.648;9.566;2023-05-16T21:44:44;93117.56;;;-145.06;100.00
59859;BME280;45734;53.648;9.566;2023-05-16T21:49:44;93109.41;;;-145.06;100.00
59859;BME280;45734;53.648;9.566;2023-05-16T21:54:45;93140.06;;;-145.06;100.00
59859;BME280;45734;53.648;9.566;2023-05-16T21:59:50;93129.84;;;-145.06;100.00
59859;BME280;45734;53.648;9.566;2023-05-16T22:04:51;93105.31;;;-145.06;100.00
59859;BME280;45734;53.648;9.566;2023-05-16T22:09:52;93131.91;;;-145.06;100.00
59859;BME280;45734;53.648;9.566;2023-05-16T22:14:53;93101.22;;;-145.06;100.00
59859;BME280;45734;53.648;9.566;2023-05-16T22:19:54;93135.97;;;-145.06;100.00
59859;BME280;45734;53.648;9.566;2023-05-16T22:24:54;93121.66;;;-145.06;100.00
59859;BME280;45734;53.648;9.566;2023-05-16T22:29:55;93113.50;;;-145.06;100.00
59859;BME280;45734;53.648;9.566;2023-05-16T22:34:55;93084.84;;;-145.06;100.00
59859;BME280;45734;53.648;9.566;2023-05-16T22:39:56;93135.97;;;-145.06;100.00
59859;BME280;45734;53.648;9.566;2023-05-16T22:44:56;93111.44;;;-145.06;100.00
59859;BME280;45734;53.648;9.566;2023-05-16T22:49:56;93097.13;;;-145.06;100.00
59859;BME280;45734;53.648;9.566;2023-05-16T22:54:57;93072.59;;;-145.06;100.00
59859;BME280;45734;53.648;9.566;2023-05-16T22:59:59;93088.94;;;-145.06;100.00
59859;BME280;45734;53.648;9.566;2023-05-16T23:04:59;93125.75;;;-145.06;100.00
59859;BME280;45734;53.648;9.566;2023-05-16T23:10:00;93041.91;;;-145.06;100.00
59859;BME280;45734;53.648;9.566;2023-05-16T23:15:00;93072.59;;;-145.06;100.00
59859;BME280;45734;53.648;9.566;2023-05-16T23:20:00;93097.13;;;-145.06;100.00
59859;BME280;45734;53.648;9.566;2023-05-16T23:25:01;93105.31;;;-145.06;100.00
59859;BME280;45734;53.648;9.566;2023-05-16T23:30:01;93105.31;;;-145.06;100.00
59859;BME280;45734;53.648;9.566;2023-05-16T23:35:02;93119.63;;;-145.06;100.00
59859;BME280;45734;53.648;9.566;2023-05-16T23:40:02;93052.13;;;-145.06;100.00
59859;BME280;45734;53.648;9.566;2023-05-16T23:45:03;93095.09;;;-145.06;100.00
59859;BME280;45734;53.648;9.566;2023-05-16T23:50:04;93054.19;;;-145.06;100.00
59859;BME280;45734;53.648;9.566;2023-05-16T23:55:05;93005.09;;;-145.06;100.00
